createdAt,value
2022-09-24T00:00:41.981Z,0.00
2022-09-24T00:01:42.066Z,0.00
2022-09-24T00:02:42.029Z,0.00
2022-09-24T00:03:41.928Z,0.00
2022-09-24T00:04:41.922Z,0.00
2022-09-24T00:05:41.951Z,0.00
2022-09-24T00:06:41.906Z,0.00
2022-09-24T00:07:41.895Z,0.00
2022-09-24T00:08:41.882Z,0.00
2022-09-24T00:09:41.889Z,0.00
2022-09-24T00:10:41.866Z,0.00
2022-09-24T00:11:41.873Z,0.00
2022-09-24T00:12:41.834Z,0.00
2022-09-24T00:13:41.825Z,0.00
2022-09-24T00:14:41.822Z,0.00
2022-09-24T00:15:41.869Z,0.00
2022-09-24T00:16:41.834Z,0.00
2022-09-24T00:17:41.790Z,0.00
2022-09-24T00:18:41.773Z,0.00
2022-09-24T00:19:41.798Z,0.00
2022-09-24T00:20:41.782Z,0.00
2022-09-24T00:21:41.783Z,0.00
2022-09-24T00:22:41.725Z,0.00
2022-09-24T00:23:41.719Z,0.00
2022-09-24T00:24:41.713Z,0.00
2022-09-24T00:25:42.438Z,0.00
2022-09-24T00:26:41.690Z,0.00
2022-09-24T00:27:41.704Z,0.00
2022-09-24T00:28:41.660Z,0.00
2022-09-24T00:29:41.686Z,0.00
2022-09-24T00:30:41.636Z,0.00
2022-09-24T00:31:41.707Z,0.00
2022-09-24T00:32:41.650Z,0.00
2022-09-24T00:33:41.599Z,0.00
2022-09-24T00:34:41.590Z,0.00
2022-09-24T00:35:41.581Z,0.00
2022-09-24T00:36:41.607Z,0.00
2022-09-24T00:37:41.594Z,0.00
2022-09-24T00:38:41.561Z,0.00
2022-09-24T00:39:41.587Z,0.00
2022-09-24T00:40:41.591Z,0.00
2022-09-24T00:41:41.537Z,0.00
2022-09-24T00:42:41.510Z,0.00
2022-09-24T00:43:41.501Z,0.00
2022-09-24T00:44:41.513Z,0.00
2022-09-24T00:45:41.509Z,0.00
2022-09-24T00:46:41.519Z,0.00
2022-09-24T00:47:41.483Z,0.00
2022-09-24T00:48:41.448Z,0.00
2022-09-24T00:49:41.427Z,0.00
2022-09-24T00:50:41.426Z,0.00
2022-09-24T00:51:41.415Z,0.00
2022-09-24T00:52:41.469Z,0.00
2022-09-24T00:53:41.400Z,0.00
2022-09-24T00:54:41.385Z,0.00
2022-09-24T00:55:41.394Z,0.00
2022-09-24T00:56:41.367Z,0.00
2022-09-24T00:57:41.369Z,0.00
2022-09-24T00:58:41.336Z,0.00
2022-09-24T00:59:41.316Z,0.00
2022-09-24T01:00:41.406Z,0.00
2022-09-24T01:01:41.396Z,0.00
2022-09-24T01:02:41.291Z,0.00
2022-09-24T01:03:41.277Z,0.00
2022-09-24T01:04:41.274Z,0.00
2022-09-24T01:05:41.286Z,0.00
2022-09-24T01:06:41.241Z,0.00
2022-09-24T01:07:41.265Z,0.00
2022-09-24T01:08:41.224Z,0.00
2022-09-24T01:09:41.217Z,0.00
2022-09-24T01:10:41.208Z,0.00
2022-09-24T01:11:41.230Z,0.00
2022-09-24T01:12:41.178Z,0.00
2022-09-24T01:13:43.268Z,0.00
2022-09-24T01:14:41.156Z,0.00
2022-09-24T01:15:41.154Z,0.00
2022-09-24T01:16:41.217Z,0.00
2022-09-24T01:17:41.130Z,0.00
2022-09-24T01:18:41.125Z,0.00
2022-09-24T01:19:41.110Z,0.00
2022-09-24T01:20:41.094Z,0.00
2022-09-24T01:21:41.086Z,0.00
2022-09-24T01:22:41.090Z,0.00
2022-09-24T01:23:44.954Z,0.00
2022-09-24T01:24:42.050Z,0.00
2022-09-24T01:25:41.036Z,0.00
2022-09-24T01:26:41.033Z,0.00
2022-09-24T01:27:41.023Z,0.00
2022-09-24T01:28:41.028Z,0.00
2022-09-24T01:29:41.023Z,0.00
2022-09-24T01:30:42.423Z,0.00
2022-09-24T01:31:41.064Z,0.00
2022-09-24T01:32:40.969Z,0.00
2022-09-24T01:33:40.969Z,0.00
2022-09-24T01:34:40.962Z,0.00
2022-09-24T01:35:40.929Z,0.00
2022-09-24T01:36:40.937Z,0.00
2022-09-24T01:37:40.904Z,0.00
2022-09-24T01:38:40.901Z,0.00
2022-09-24T01:39:40.904Z,0.00
2022-09-24T01:40:40.907Z,0.00
2022-09-24T01:41:40.887Z,0.00
2022-09-24T01:42:40.850Z,0.00
2022-09-24T01:43:40.852Z,0.00
2022-09-24T01:44:40.839Z,0.00
2022-09-24T01:45:40.834Z,0.00
2022-09-24T01:46:40.924Z,0.00
2022-09-24T01:47:40.817Z,0.00
2022-09-24T01:48:40.782Z,0.00
2022-09-24T01:49:40.777Z,0.00
2022-09-24T01:50:40.766Z,0.00
2022-09-24T01:51:40.782Z,0.00
2022-09-24T01:52:40.762Z,0.00
2022-09-24T01:53:40.742Z,0.00
2022-09-24T01:54:40.751Z,0.00
2022-09-24T01:55:40.717Z,0.00
2022-09-24T01:56:40.704Z,0.00
2022-09-24T01:57:40.706Z,0.00
2022-09-24T01:58:40.693Z,0.00
2022-09-24T01:59:40.686Z,0.00
2022-09-24T02:00:40.768Z,0.00
2022-09-24T02:01:40.758Z,0.00
2022-09-24T02:02:40.686Z,0.00
2022-09-24T02:03:40.627Z,0.00
2022-09-24T02:04:40.635Z,0.00
2022-09-24T02:05:40.677Z,0.00
2022-09-24T02:06:40.592Z,0.00
2022-09-24T02:07:40.587Z,0.00
2022-09-24T02:08:40.576Z,0.00
2022-09-24T02:09:40.581Z,0.00
2022-09-24T02:10:40.547Z,0.00
2022-09-24T02:11:40.554Z,0.00
2022-09-24T02:12:40.536Z,0.00
2022-09-24T02:13:40.556Z,0.00
2022-09-24T02:14:40.519Z,0.00
2022-09-24T02:15:40.594Z,0.00
2022-09-24T02:16:40.485Z,0.00
2022-09-24T02:17:40.510Z,0.00
2022-09-24T02:18:40.475Z,0.00
2022-09-24T02:19:40.474Z,0.00
2022-09-24T02:20:40.473Z,0.00
2022-09-24T02:21:40.438Z,0.00
2022-09-24T02:22:40.426Z,0.00
2022-09-24T02:23:40.417Z,0.00
2022-09-24T02:24:40.400Z,0.00
2022-09-24T02:25:40.394Z,0.00
2022-09-24T02:26:40.397Z,0.00
2022-09-24T02:27:40.361Z,0.00
2022-09-24T02:28:40.359Z,0.00
2022-09-24T02:29:40.351Z,0.00
2022-09-24T02:30:40.331Z,0.00
2022-09-24T02:31:40.394Z,0.00
2022-09-24T02:32:40.323Z,0.00
2022-09-24T02:33:40.336Z,0.00
2022-09-24T02:34:40.304Z,0.00
2022-09-24T02:35:40.285Z,0.00
2022-09-24T02:36:40.271Z,0.00
2022-09-24T02:37:40.293Z,0.00
2022-09-24T02:38:40.252Z,0.00
2022-09-24T02:39:40.239Z,0.00
2022-09-24T02:40:40.312Z,0.00
2022-09-24T02:41:40.226Z,0.00
2022-09-24T02:42:40.203Z,0.00
2022-09-24T02:43:40.211Z,0.00
2022-09-24T02:44:40.177Z,0.00
2022-09-24T02:45:40.181Z,0.00
2022-09-24T02:46:40.194Z,0.00
2022-09-24T02:47:40.153Z,0.00
2022-09-24T02:48:40.159Z,0.00
2022-09-24T02:49:40.141Z,0.00
2022-09-24T02:50:40.115Z,0.00
2022-09-24T02:51:40.131Z,0.00
2022-09-24T02:52:40.103Z,0.00
2022-09-24T02:53:40.109Z,0.00
2022-09-24T02:54:40.070Z,0.00
2022-09-24T02:55:40.072Z,0.00
2022-09-24T02:56:40.057Z,0.00
2022-09-24T02:57:40.048Z,0.00
2022-09-24T02:58:40.044Z,0.00
2022-09-24T02:59:40.015Z,0.00
2022-09-24T03:00:40.020Z,0.00
2022-09-24T03:01:40.172Z,0.00
2022-09-24T03:02:40.104Z,0.00
2022-09-24T03:03:39.980Z,0.00
2022-09-24T03:04:39.985Z,0.00
2022-09-24T03:05:39.968Z,0.00
2022-09-24T03:06:39.960Z,0.00
2022-09-24T03:07:39.928Z,0.00
2022-09-24T03:08:39.958Z,0.00
2022-09-24T03:09:39.966Z,0.00
2022-09-24T03:10:39.919Z,0.00
2022-09-24T03:11:39.899Z,0.00
2022-09-24T03:12:39.886Z,0.00
2022-09-24T03:13:39.913Z,0.00
2022-09-24T03:14:39.918Z,0.00
2022-09-24T03:15:39.924Z,0.00
2022-09-24T03:16:39.872Z,0.00
2022-09-24T03:17:39.819Z,0.00
2022-09-24T03:18:39.828Z,0.00
2022-09-24T03:19:39.846Z,0.00
2022-09-24T03:20:39.799Z,0.00
2022-09-24T03:21:39.803Z,0.00
2022-09-24T03:22:39.773Z,0.00
2022-09-24T03:23:39.748Z,0.00
2022-09-24T03:24:39.741Z,0.00
2022-09-24T03:25:39.755Z,0.00
2022-09-24T03:26:39.749Z,0.00
2022-09-24T03:27:39.712Z,0.00
2022-09-24T03:28:39.708Z,0.00
2022-09-24T03:29:39.694Z,0.00
2022-09-24T03:30:39.698Z,0.00
2022-09-24T03:31:39.754Z,0.00
2022-09-24T03:32:39.664Z,0.00
2022-09-24T03:33:39.648Z,0.00
2022-09-24T03:34:39.642Z,0.00
2022-09-24T03:35:39.626Z,0.00
2022-09-24T03:36:39.624Z,0.00
2022-09-24T03:37:39.728Z,0.00
2022-09-24T03:38:39.594Z,0.00
2022-09-24T03:39:39.599Z,0.00
2022-09-24T03:40:39.665Z,0.00
2022-09-24T03:41:39.574Z,0.00
2022-09-24T03:42:39.571Z,0.00
2022-09-24T03:43:39.550Z,0.00
2022-09-24T03:44:39.527Z,0.00
2022-09-24T03:45:39.533Z,0.00
2022-09-24T03:46:39.569Z,0.00
2022-09-24T03:47:39.511Z,0.00
2022-09-24T03:48:39.482Z,0.00
2022-09-24T03:49:39.478Z,0.00
2022-09-24T03:50:39.464Z,0.00
2022-09-24T03:51:39.456Z,0.00
2022-09-24T03:52:39.459Z,0.00
2022-09-24T03:53:39.486Z,0.00
2022-09-24T03:54:39.421Z,0.00
2022-09-24T03:55:39.410Z,0.00
2022-09-24T03:56:39.395Z,0.00
2022-09-24T03:57:39.405Z,0.00
2022-09-24T03:58:39.376Z,0.00
2022-09-24T03:59:39.373Z,0.00
2022-09-24T04:00:41.238Z,0.00
2022-09-24T04:01:39.377Z,0.00
2022-09-24T04:02:39.514Z,0.00
2022-09-24T04:03:39.317Z,0.00
2022-09-24T04:04:39.350Z,0.00
2022-09-24T04:05:39.309Z,0.00
2022-09-24T04:06:39.289Z,0.00
2022-09-24T04:07:39.282Z,0.00
2022-09-24T04:08:39.269Z,0.00
2022-09-24T04:09:39.272Z,0.00
2022-09-24T04:10:39.263Z,0.00
2022-09-24T04:11:39.236Z,0.00
2022-09-24T04:12:39.226Z,0.00
2022-09-24T04:13:39.219Z,0.00
2022-09-24T04:14:39.224Z,0.00
2022-09-24T04:15:39.222Z,0.00
2022-09-24T04:16:39.256Z,0.00
2022-09-24T04:17:39.177Z,0.00
2022-09-24T04:18:39.545Z,0.00
2022-09-24T04:19:39.149Z,0.00
2022-09-24T04:20:39.166Z,0.00
2022-09-24T04:21:39.125Z,0.00
2022-09-24T04:22:39.154Z,0.00
2022-09-24T04:23:39.113Z,0.00
2022-09-24T04:24:39.097Z,0.00
2022-09-24T04:25:39.179Z,0.00
2022-09-24T04:26:39.104Z,0.00
2022-09-24T04:27:39.064Z,0.00
2022-09-24T04:28:39.050Z,0.00
2022-09-24T04:29:39.038Z,0.00
2022-09-24T04:30:39.030Z,0.00
2022-09-24T04:31:39.116Z,0.00
2022-09-24T04:32:39.017Z,0.00
2022-09-24T04:33:38.998Z,0.00
2022-09-24T04:34:38.992Z,0.00
2022-09-24T04:35:38.977Z,0.00
2022-09-24T04:36:38.966Z,0.00
2022-09-24T04:37:38.990Z,0.00
2022-09-24T04:38:38.939Z,0.00
2022-09-24T04:39:38.931Z,0.00
2022-09-24T04:40:38.960Z,0.00
2022-09-24T04:41:38.939Z,0.00
2022-09-24T04:42:38.926Z,0.00
2022-09-24T04:43:38.892Z,0.00
2022-09-24T04:44:38.912Z,0.00
2022-09-24T04:45:38.873Z,0.00
2022-09-24T04:46:38.873Z,0.00
2022-09-24T04:47:38.886Z,0.00
2022-09-24T04:48:38.835Z,0.00
2022-09-24T04:49:38.828Z,0.00
2022-09-24T04:50:43.307Z,0.00
2022-09-24T04:51:38.819Z,0.00
2022-09-24T04:52:38.820Z,0.00
2022-09-24T04:53:38.806Z,0.00
2022-09-24T04:54:38.765Z,0.00
2022-09-24T04:55:38.763Z,0.00
2022-09-24T04:56:38.743Z,0.00
2022-09-24T04:57:38.760Z,0.00
2022-09-24T04:58:38.730Z,0.00
2022-09-24T04:59:38.753Z,0.00
2022-09-24T05:00:38.711Z,0.00
2022-09-24T05:01:38.840Z,0.00
2022-09-24T05:02:38.831Z,0.00
2022-09-24T05:03:38.668Z,0.00
2022-09-24T05:04:38.659Z,0.00
2022-09-24T05:05:38.744Z,0.00
2022-09-24T05:06:38.642Z,0.00
2022-09-24T05:07:38.684Z,0.00
2022-09-24T05:08:38.611Z,0.00
2022-09-24T05:09:38.664Z,0.00
2022-09-24T05:10:38.632Z,0.00
2022-09-24T05:11:38.625Z,0.00
2022-09-24T05:12:38.643Z,0.00
2022-09-24T05:13:38.656Z,0.00
2022-09-24T05:14:38.552Z,0.00
2022-09-24T05:15:42.975Z,0.00
2022-09-24T05:16:38.617Z,0.00
2022-09-24T05:17:38.526Z,5.62
2022-09-24T05:18:38.512Z,5.62
2022-09-24T05:19:38.495Z,5.62
2022-09-24T05:20:38.491Z,5.62
2022-09-24T05:21:38.485Z,5.62
2022-09-24T05:22:38.501Z,5.62
2022-09-24T05:23:38.463Z,5.62
2022-09-24T05:24:38.442Z,5.62
2022-09-24T05:25:38.461Z,5.62
2022-09-24T05:26:38.445Z,5.62
2022-09-24T05:27:38.420Z,5.62
2022-09-24T05:28:38.441Z,5.62
2022-09-24T05:29:38.429Z,5.62
2022-09-24T05:30:38.374Z,5.62
2022-09-24T05:31:38.425Z,5.62
2022-09-24T05:32:38.353Z,5.62
2022-09-24T05:33:38.372Z,5.62
2022-09-24T05:34:38.368Z,5.62
2022-09-24T05:35:38.338Z,5.62
2022-09-24T05:36:38.338Z,5.62
2022-09-24T05:37:38.332Z,11.25
2022-09-24T05:38:41.599Z,11.25
2022-09-24T05:39:38.329Z,11.25
2022-09-24T05:40:38.332Z,11.25
2022-09-24T05:41:38.276Z,16.88
2022-09-24T05:42:38.290Z,16.88
2022-09-24T05:43:38.243Z,22.50
2022-09-24T05:44:38.249Z,22.50
2022-09-24T05:45:38.243Z,22.50
2022-09-24T05:46:38.315Z,22.50
2022-09-24T05:47:38.193Z,22.50
2022-09-24T05:48:38.246Z,28.12
2022-09-24T05:49:38.177Z,28.12
2022-09-24T05:50:38.164Z,28.12
2022-09-24T05:51:38.160Z,33.75
2022-09-24T05:52:38.138Z,33.75
2022-09-24T05:53:38.134Z,33.75
2022-09-24T05:54:38.152Z,39.38
2022-09-24T05:55:38.106Z,39.38
2022-09-24T05:56:38.112Z,45.00
2022-09-24T05:57:38.085Z,45.00
2022-09-24T05:58:38.088Z,45.00
2022-09-24T05:59:38.084Z,45.00
2022-09-24T06:00:38.086Z,39.38
2022-09-24T06:01:38.168Z,39.38
2022-09-24T06:02:38.046Z,33.75
2022-09-24T06:03:38.032Z,33.75
2022-09-24T06:04:38.028Z,33.75
2022-09-24T06:05:38.011Z,33.75
2022-09-24T06:06:37.993Z,33.75
2022-09-24T06:07:38.046Z,39.38
2022-09-24T06:08:37.970Z,45.00
2022-09-24T06:09:38.009Z,45.00
2022-09-24T06:10:37.951Z,45.00
2022-09-24T06:11:40.631Z,45.00
2022-09-24T06:12:37.916Z,45.00
2022-09-24T06:13:37.913Z,45.00
2022-09-24T06:14:37.899Z,45.00
2022-09-24T06:15:37.926Z,45.00
2022-09-24T06:16:37.960Z,45.00
2022-09-24T06:17:37.882Z,50.62
2022-09-24T06:18:37.865Z,50.62
2022-09-24T06:19:37.839Z,50.62
2022-09-24T06:20:37.874Z,56.25
2022-09-24T06:21:37.818Z,56.25
2022-09-24T06:22:37.815Z,61.88
2022-09-24T06:23:37.818Z,61.88
2022-09-24T06:24:37.821Z,61.88
2022-09-24T06:25:37.813Z,67.50
2022-09-24T06:26:37.774Z,67.50
2022-09-24T06:27:37.759Z,67.50
2022-09-24T06:28:37.747Z,73.12
2022-09-24T06:29:37.931Z,73.12
2022-09-24T06:30:37.730Z,73.12
2022-09-24T06:31:37.875Z,73.12
2022-09-24T06:32:37.695Z,73.12
2022-09-24T06:33:37.832Z,73.12
2022-09-24T06:34:37.754Z,78.75
2022-09-24T06:35:37.673Z,78.75
2022-09-24T06:36:37.685Z,84.38
2022-09-24T06:37:37.641Z,95.62
2022-09-24T06:38:37.632Z,101.25
2022-09-24T06:39:37.617Z,112.50
2022-09-24T06:40:38.025Z,118.12
2022-09-24T06:41:37.624Z,118.12
2022-09-24T06:42:37.615Z,118.12
2022-09-24T06:43:37.585Z,123.75
2022-09-24T06:44:37.564Z,123.75
2022-09-24T06:45:37.554Z,118.12
2022-09-24T06:46:37.605Z,112.50
2022-09-24T06:47:37.564Z,106.88
2022-09-24T06:48:37.521Z,101.25
2022-09-24T06:49:37.525Z,101.25
2022-09-24T06:50:37.499Z,90.00
2022-09-24T06:51:37.486Z,90.00
2022-09-24T06:52:37.485Z,84.38
2022-09-24T06:53:37.504Z,78.75
2022-09-24T06:54:37.454Z,73.12
2022-09-24T06:55:37.448Z,67.50
2022-09-24T06:56:37.442Z,67.50
2022-09-24T06:57:37.455Z,67.50
2022-09-24T06:58:37.410Z,73.12
2022-09-24T06:59:37.400Z,73.12
2022-09-24T07:00:37.510Z,67.50
2022-09-24T07:01:37.510Z,67.50
2022-09-24T07:02:37.484Z,67.50
2022-09-24T07:03:37.355Z,61.88
2022-09-24T07:04:37.351Z,61.88
2022-09-24T07:05:43.198Z,61.88
2022-09-24T07:06:38.322Z,61.88
2022-09-24T07:07:37.303Z,61.88
2022-09-24T07:08:37.294Z,61.88
2022-09-24T07:09:37.290Z,56.25
2022-09-24T07:10:37.294Z,56.25
2022-09-24T07:11:37.265Z,56.25
2022-09-24T07:12:37.268Z,56.25
2022-09-24T07:13:37.242Z,61.88
2022-09-24T07:14:37.229Z,67.50
2022-09-24T07:15:37.316Z,67.50
2022-09-24T07:16:37.292Z,73.12
2022-09-24T07:17:37.207Z,73.12
2022-09-24T07:18:37.185Z,73.12
2022-09-24T07:19:37.180Z,73.12
2022-09-24T07:20:37.166Z,73.12
2022-09-24T07:21:37.199Z,73.12
2022-09-24T07:22:37.147Z,78.75
2022-09-24T07:23:37.157Z,78.75
2022-09-24T07:24:37.123Z,78.75
2022-09-24T07:25:37.114Z,78.75
2022-09-24T07:26:37.112Z,78.75
2022-09-24T07:27:37.089Z,78.75
2022-09-24T07:28:37.096Z,84.38
2022-09-24T07:29:37.085Z,90.00
2022-09-24T07:30:37.057Z,95.62
2022-09-24T07:31:37.194Z,95.62
2022-09-24T07:32:37.056Z,95.62
2022-09-24T07:33:37.020Z,84.38
2022-09-24T07:34:37.009Z,78.75
2022-09-24T07:35:37.030Z,73.12
2022-09-24T07:36:36.994Z,67.50
2022-09-24T07:37:37.036Z,67.50
2022-09-24T07:38:36.962Z,61.88
2022-09-24T07:39:36.984Z,61.88
2022-09-24T07:40:37.009Z,56.25
2022-09-24T07:41:41.951Z,56.25
2022-09-24T07:42:37.921Z,50.62
2022-09-24T07:43:36.909Z,50.62
2022-09-24T07:44:36.925Z,56.25
2022-09-24T07:45:36.944Z,56.25
2022-09-24T07:46:36.948Z,56.25
2022-09-24T07:47:36.862Z,56.25
2022-09-24T07:48:36.857Z,56.25
2022-09-24T07:49:36.852Z,56.25
2022-09-24T07:50:36.831Z,56.25
2022-09-24T07:51:36.840Z,61.88
2022-09-24T07:52:36.807Z,61.88
2022-09-24T07:53:36.827Z,61.88
2022-09-24T07:54:36.794Z,61.88
2022-09-24T07:55:36.782Z,61.88
2022-09-24T07:56:36.790Z,61.88
2022-09-24T07:57:36.763Z,67.50
2022-09-24T07:58:36.750Z,73.12
2022-09-24T07:59:36.739Z,73.12
2022-09-24T08:00:36.756Z,73.12
2022-09-24T08:01:36.816Z,73.12
2022-09-24T08:02:36.719Z,67.50
2022-09-24T08:03:36.745Z,67.50
2022-09-24T08:04:36.698Z,67.50
2022-09-24T08:05:36.720Z,67.50
2022-09-24T08:06:39.607Z,73.12
2022-09-24T08:07:36.657Z,73.12
2022-09-24T08:08:36.637Z,78.75
2022-09-24T08:09:36.723Z,78.75
2022-09-24T08:10:36.644Z,78.75
2022-09-24T08:11:36.607Z,78.75
2022-09-24T08:12:36.590Z,84.38
2022-09-24T08:13:36.611Z,84.38
2022-09-24T08:14:36.569Z,84.38
2022-09-24T08:15:36.645Z,90.00
2022-09-24T08:16:36.557Z,90.00
2022-09-24T08:17:36.562Z,90.00
2022-09-24T08:18:36.557Z,90.00
2022-09-24T08:19:36.535Z,90.00
2022-09-24T08:20:36.523Z,90.00
2022-09-24T08:21:36.535Z,90.00
2022-09-24T08:22:36.494Z,90.00
2022-09-24T08:23:36.644Z,90.00
2022-09-24T08:24:36.457Z,90.00
2022-09-24T08:25:36.487Z,90.00
2022-09-24T08:26:36.444Z,95.62
2022-09-24T08:27:36.439Z,101.25
2022-09-24T08:28:36.452Z,106.88
2022-09-24T08:29:36.434Z,112.50
2022-09-24T08:30:36.423Z,118.12
2022-09-24T08:31:36.426Z,129.38
2022-09-24T08:32:36.368Z,135.00
2022-09-24T08:33:36.398Z,146.25
2022-09-24T08:34:36.359Z,157.50
2022-09-24T08:35:36.342Z,168.75
2022-09-24T08:36:40.626Z,168.75
2022-09-24T08:37:37.314Z,174.38
2022-09-24T08:38:36.309Z,174.38
2022-09-24T08:39:36.299Z,180.00
2022-09-24T08:40:36.354Z,185.62
2022-09-24T08:41:36.298Z,196.88
2022-09-24T08:42:36.265Z,196.88
2022-09-24T08:43:36.247Z,208.12
2022-09-24T08:44:36.253Z,213.75
2022-09-24T08:45:36.258Z,219.38
2022-09-24T08:46:36.279Z,219.38
2022-09-24T08:47:36.216Z,225.00
2022-09-24T08:48:36.201Z,236.25
2022-09-24T08:49:36.200Z,236.25
2022-09-24T08:50:36.174Z,230.62
2022-09-24T08:51:36.161Z,208.12
2022-09-24T08:52:36.154Z,196.88
2022-09-24T08:53:36.162Z,185.62
2022-09-24T08:54:36.129Z,174.38
2022-09-24T08:55:36.120Z,174.38
2022-09-24T08:56:36.127Z,174.38
2022-09-24T08:57:36.115Z,191.25
2022-09-24T08:58:39.238Z,174.38
2022-09-24T08:59:36.119Z,174.38
2022-09-24T09:00:36.078Z,163.12
2022-09-24T09:01:36.146Z,157.50
2022-09-24T09:02:36.182Z,140.62
2022-09-24T09:03:36.034Z,135.00
2022-09-24T09:04:36.021Z,135.00
2022-09-24T09:05:36.021Z,135.00
2022-09-24T09:06:36.005Z,135.00
2022-09-24T09:07:35.994Z,146.25
2022-09-24T09:08:55.094Z,157.50
2022-09-24T09:09:36.993Z,174.38
2022-09-24T09:10:35.955Z,202.50
2022-09-24T09:11:35.947Z,253.12
2022-09-24T09:12:35.938Z,292.50
2022-09-24T09:13:35.944Z,320.62
2022-09-24T09:14:39.644Z,376.88
2022-09-24T09:15:35.913Z,371.25
2022-09-24T09:16:35.967Z,416.25
2022-09-24T09:17:35.888Z,466.88
2022-09-24T09:18:35.876Z,421.88
2022-09-24T09:19:35.879Z,382.50
2022-09-24T09:20:36.886Z,348.75
2022-09-24T09:21:35.873Z,258.75
2022-09-24T09:22:35.834Z,253.12
2022-09-24T09:23:35.818Z,225.00
2022-09-24T09:24:35.805Z,196.88
2022-09-24T09:25:35.808Z,174.38
2022-09-24T09:26:35.798Z,151.88
2022-09-24T09:27:35.768Z,157.50
2022-09-24T09:28:35.766Z,168.75
2022-09-24T09:29:35.847Z,163.12
2022-09-24T09:30:35.743Z,157.50
2022-09-24T09:31:35.831Z,146.25
2022-09-24T09:32:35.723Z,151.88
2022-09-24T09:33:35.702Z,191.25
2022-09-24T09:34:35.701Z,196.88
2022-09-24T09:35:35.707Z,196.88
2022-09-24T09:36:35.684Z,180.00
2022-09-24T09:37:35.665Z,174.38
2022-09-24T09:38:35.654Z,174.38
2022-09-24T09:39:35.642Z,180.00
2022-09-24T09:40:35.642Z,191.25
2022-09-24T09:41:35.637Z,202.50
2022-09-24T09:42:35.619Z,208.12
2022-09-24T09:43:35.600Z,236.25
2022-09-24T09:44:35.589Z,247.50
2022-09-24T09:45:35.587Z,241.88
2022-09-24T09:46:35.630Z,241.88
2022-09-24T09:47:35.562Z,258.75
2022-09-24T09:48:35.544Z,230.62
2022-09-24T09:49:35.523Z,219.38
2022-09-24T09:50:35.520Z,202.50
2022-09-24T09:51:35.506Z,191.25
2022-09-24T09:52:35.507Z,180.00
2022-09-24T09:53:35.514Z,157.50
2022-09-24T09:54:35.468Z,146.25
2022-09-24T09:55:35.464Z,140.62
2022-09-24T09:56:35.454Z,140.62
2022-09-24T09:57:35.439Z,151.88
2022-09-24T09:58:35.451Z,163.12
2022-09-24T09:59:35.446Z,180.00
2022-09-24T10:00:35.404Z,185.62
2022-09-24T10:01:35.589Z,191.25
2022-09-24T10:02:35.601Z,191.25
2022-09-24T10:03:35.444Z,185.62
2022-09-24T10:04:35.379Z,191.25
2022-09-24T10:05:35.362Z,191.25
2022-09-24T10:06:35.384Z,191.25
2022-09-24T10:07:35.337Z,208.12
2022-09-24T10:08:35.318Z,219.38
2022-09-24T10:09:35.331Z,219.38
2022-09-24T10:10:35.356Z,208.12
2022-09-24T10:11:35.286Z,202.50
2022-09-24T10:12:35.276Z,191.25
2022-09-24T10:13:35.266Z,180.00
2022-09-24T10:14:35.259Z,174.38
2022-09-24T10:15:35.255Z,174.38
2022-09-24T10:16:35.312Z,168.75
2022-09-24T10:17:35.269Z,168.75
2022-09-24T10:18:35.207Z,168.75
2022-09-24T10:19:35.217Z,163.12
2022-09-24T10:20:35.195Z,163.12
2022-09-24T10:21:35.256Z,157.50
2022-09-24T10:22:35.156Z,157.50
2022-09-24T10:23:35.163Z,151.88
2022-09-24T10:24:35.139Z,146.25
2022-09-24T10:25:35.158Z,146.25
2022-09-24T10:26:35.124Z,146.25
2022-09-24T10:27:35.122Z,140.62
2022-09-24T10:28:35.096Z,140.62
2022-09-24T10:29:35.082Z,140.62
2022-09-24T10:30:35.079Z,135.00
2022-09-24T10:31:35.155Z,135.00
2022-09-24T10:32:35.053Z,135.00
2022-09-24T10:33:35.140Z,135.00
2022-09-24T10:34:35.037Z,135.00
2022-09-24T10:35:35.017Z,135.00
2022-09-24T10:36:35.018Z,129.38
2022-09-24T10:37:34.998Z,129.38
2022-09-24T10:38:34.979Z,123.75
2022-09-24T10:39:34.977Z,123.75
2022-09-24T10:40:35.019Z,123.75
2022-09-24T10:41:34.968Z,129.38
2022-09-24T10:42:34.964Z,129.38
2022-09-24T10:43:34.928Z,135.00
2022-09-24T10:44:34.920Z,135.00
2022-09-24T10:45:34.899Z,135.00
2022-09-24T10:46:34.951Z,135.00
2022-09-24T10:47:34.884Z,135.00
2022-09-24T10:48:34.928Z,135.00
2022-09-24T10:49:34.976Z,129.38
2022-09-24T10:50:34.855Z,123.75
2022-09-24T10:51:34.848Z,118.12
2022-09-24T10:52:34.825Z,118.12
2022-09-24T10:53:34.811Z,123.75
2022-09-24T10:54:34.821Z,129.38
2022-09-24T10:55:34.802Z,135.00
2022-09-24T10:56:34.782Z,146.25
2022-09-24T10:57:34.782Z,151.88
2022-09-24T10:58:34.811Z,157.50
2022-09-24T10:59:34.747Z,163.12
2022-09-24T11:00:34.747Z,168.75
2022-09-24T11:01:34.787Z,180.00
2022-09-24T11:02:34.840Z,185.62
2022-09-24T11:03:34.710Z,191.25
2022-09-24T11:04:38.767Z,191.25
2022-09-24T11:05:34.708Z,196.88
2022-09-24T11:06:34.668Z,196.88
2022-09-24T11:07:34.657Z,196.88
2022-09-24T11:08:34.646Z,202.50
2022-09-24T11:09:34.650Z,202.50
2022-09-24T11:10:34.623Z,208.12
2022-09-24T11:11:34.622Z,208.12
2022-09-24T11:12:34.609Z,208.12
2022-09-24T11:13:34.599Z,208.12
2022-09-24T11:14:34.597Z,208.12
2022-09-24T11:15:34.577Z,202.50
2022-09-24T11:16:34.680Z,202.50
2022-09-24T11:17:34.555Z,202.50
2022-09-24T11:18:34.543Z,202.50
2022-09-24T11:19:34.539Z,208.12
2022-09-24T11:20:34.522Z,208.12
2022-09-24T11:21:34.529Z,208.12
2022-09-24T11:22:34.520Z,208.12
2022-09-24T11:23:34.491Z,208.12
2022-09-24T11:24:34.508Z,208.12
2022-09-24T11:25:34.459Z,208.12
2022-09-24T11:26:34.463Z,202.50
2022-09-24T11:27:34.445Z,202.50
2022-09-24T11:28:34.434Z,202.50
2022-09-24T11:29:37.130Z,202.50
2022-09-24T11:30:34.462Z,202.50
2022-09-24T11:31:34.504Z,202.50
2022-09-24T11:32:34.391Z,202.50
2022-09-24T11:33:34.371Z,202.50
2022-09-24T11:34:34.400Z,202.50
2022-09-24T11:35:34.361Z,196.88
2022-09-24T11:36:34.343Z,196.88
2022-09-24T11:37:34.958Z,191.25
2022-09-24T11:38:34.325Z,185.62
2022-09-24T11:39:34.315Z,185.62
2022-09-24T11:40:34.417Z,180.00
2022-09-24T11:41:34.316Z,180.00
2022-09-24T11:42:34.301Z,185.62
2022-09-24T11:43:34.281Z,185.62
2022-09-24T11:44:34.255Z,191.25
2022-09-24T11:45:34.243Z,191.25
2022-09-24T11:46:34.294Z,185.62
2022-09-24T11:47:34.251Z,185.62
2022-09-24T11:48:34.208Z,180.00
2022-09-24T11:49:34.322Z,174.38
2022-09-24T11:50:34.192Z,168.75
2022-09-24T11:51:34.206Z,168.75
2022-09-24T11:52:34.219Z,163.12
2022-09-24T11:53:34.509Z,163.12
2022-09-24T11:54:34.140Z,163.12
2022-09-24T11:55:34.140Z,163.12
2022-09-24T11:56:34.135Z,163.12
2022-09-24T11:57:34.134Z,157.50
2022-09-24T11:58:34.136Z,151.88
2022-09-24T11:59:34.101Z,146.25
2022-09-24T12:00:34.084Z,140.62
2022-09-24T12:01:34.138Z,140.62
2022-09-24T12:02:34.150Z,129.38
2022-09-24T12:03:34.118Z,123.75
2022-09-24T12:04:34.066Z,112.50
2022-09-24T12:05:34.019Z,101.25
2022-09-24T12:06:34.013Z,90.00
2022-09-24T12:07:34.016Z,84.38
2022-09-24T12:08:34.021Z,84.38
2022-09-24T12:09:34.027Z,84.38
2022-09-24T12:10:33.968Z,78.75
2022-09-24T12:11:34.007Z,78.75
2022-09-24T12:12:34.089Z,78.75
2022-09-24T12:13:33.973Z,78.75
2022-09-24T12:14:34.004Z,78.75
2022-09-24T12:15:33.920Z,78.75
2022-09-24T12:16:33.969Z,84.38
2022-09-24T12:17:33.889Z,84.38
2022-09-24T12:18:33.884Z,84.38
2022-09-24T12:19:33.889Z,84.38
2022-09-24T12:20:33.864Z,90.00
2022-09-24T12:21:33.849Z,95.62
2022-09-24T12:22:33.834Z,95.62
2022-09-24T12:23:33.819Z,101.25
2022-09-24T12:24:33.845Z,101.25
2022-09-24T12:25:33.846Z,106.88
2022-09-24T12:26:33.797Z,106.88
2022-09-24T12:27:33.787Z,112.50
2022-09-24T12:28:33.773Z,118.12
2022-09-24T12:29:33.929Z,129.38
2022-09-24T12:30:33.773Z,135.00
2022-09-24T12:31:33.828Z,140.62
2022-09-24T12:32:33.731Z,140.62
2022-09-24T12:33:33.711Z,146.25
2022-09-24T12:34:33.719Z,151.88
2022-09-24T12:35:33.697Z,157.50
2022-09-24T12:36:33.684Z,163.12
2022-09-24T12:37:33.692Z,168.75
2022-09-24T12:38:33.665Z,168.75
2022-09-24T12:39:33.658Z,163.12
2022-09-24T12:40:33.741Z,157.50
2022-09-24T12:41:33.656Z,151.88
2022-09-24T12:42:33.618Z,140.62
2022-09-24T12:43:33.603Z,135.00
2022-09-24T12:44:33.602Z,135.00
2022-09-24T12:45:33.583Z,135.00
2022-09-24T12:46:33.781Z,135.00
2022-09-24T12:47:33.561Z,140.62
2022-09-24T12:48:33.543Z,140.62
2022-09-24T12:49:33.577Z,140.62
2022-09-24T12:50:33.531Z,129.38
2022-09-24T12:51:33.547Z,123.75
2022-09-24T12:52:33.519Z,129.38
2022-09-24T12:53:33.498Z,135.00
2022-09-24T12:54:33.477Z,140.62
2022-09-24T12:55:33.502Z,140.62